Crestview, FL

7:36 PM CDT on October 31, 2014 (GMT -0500)
Hurlburt | Change Station
CLOSE
Current Station
Airport
Location: Hurlburt Field,
Elevation: 39 ft
Nearby Weather Stations
Active Advisory: Freeze Watch, Wind Advisory

Elev 39 ft 30.43 °N, 86.69 °W | Updated 38 minutes ago

Partly Cloudy
Partly Cloudy
66 °F
Feels Like 66 °F
N
6
Wind Variable Wind from NNW

Today
High -- | Low -- °F
--% Chance of Precip.
Yesterday
High -- | Low -- °F
Precip. -- in
7:00 AM 5:59 PM
First Quarter, 60% visible
Pressure 29.95 in
Visibility 10.0 miles
Clouds Clear
Dew Point 42 °F
Humidity 41%
Rainfall 0.00 in
Snow Depth Not available.
UV 0 out of 12
Pollen 3.00 out of 12
Air Quality Not available.
Flu Activity Not available.
METAR KHRT 312358Z AUTO 33005KT 10SM CLR 19/05 A2994 RMK AO2 SLP140 T01890053 10236 20189 52015 RVRNO $

More Conditions Fewer Conditions

Pressure 29.95 in
Visibility 10.0 miles
Clouds Clear
Dew Point 42 °F
Humidity 41%
Rainfall 0.00 in
Snow Depth Not available.
UV 0 out of 12
Pollen 3.00 out of 12
Air Quality Not available.
Flu Activity Not available.
METAR KHRT 312358Z AUTO 33005KT 10SM CLR 19/05 A2994 RMK AO2 SLP140 T01890053 10236 20189 52015 RVRNO $

More Conditions Fewer Conditions

10-Day Weather Forecast

Almanac

Astronomy

Oct. 31, 2014 Rise Set
Actual Time
Civil Twilight
Nautical Twilight
Astronomical Twilight
Moon
Length of Visible Light
Length of Day
Tomorrow will be .
, % of the Moon is Illuminated

Today's Extremes

State Highs State Lows

Community

WunderPhotos

Upload Photos

1,766,794 photos uploaded!

WunderBlogs® & News

Nearby

Air Quality

  Air Quality AQ Index Pollutant
Not available.

Snow Depth

Station Depth Elevation

Earthquake Activity

City Distance Mag. Time & Date
Minimum magnitude displayed is 2.5.

Coastal Water Temperatures

Place Temperature

Nearby Weather Stations